Time,TemperatureF,DewpointF,PressureIn,WindDirection,WindDirectionDegrees,WindSpeedMPH,WindSpeedGustMPH,Humidity,HourlyPrecipIn,Conditions,Clouds,dailyrainin,SoftwareType,DateUTC
2013-07-19 00:03:00,54.8,53.0,29.94,SSE,153,4.0,15.0,93,0.00,,,0.00,weatherlink.com 1.10,2013-07-19 07:03:00,
2013-07-19 00:18:00,54.7,53.0,29.94,ESE,119,5.0,16.0,93,0.00,,,0.00,weatherlink.com 1.10,2013-07-19 07:18:00,
2013-07-19 00:33:00,54.9,53.0,29.93,SSW,204,5.0,14.0,93,0.00,,,0.00,weatherlink.com 1.10,2013-07-19 07:33:00,
2013-07-19 00:48:00,55.0,53.0,29.93,SSW,200,6.0,11.0,93,0.00,,,0.00,weatherlink.com 1.10,2013-07-19 07:48:00,
2013-07-19 01:03:00,54.9,53.0,29.93,WSW,250,7.0,12.0,93,0.00,,,0.00,weatherlink.com 1.10,2013-07-19 08:03:00,
2013-07-19 01:18:00,54.6,53.0,29.93,SSW,194,9.0,13.0,93,0.00,,,0.00,weatherlink.com 1.10,2013-07-19 08:18:00,
2013-07-19 01:33:00,54.6,53.0,29.93,SSE,156,10.0,13.0,93,0.00,,,0.00,weatherlink.com 1.10,2013-07-19 08:33:00,
2013-07-19 01:48:00,54.4,53.0,29.93,SW,226,6.0,14.0,93,0.00,,,0.00,weatherlink.com 1.10,2013-07-19 08:48:00,
2013-07-19 02:03:00,54.4,53.0,29.92,South,179,4.0,13.0,94,0.00,,,0.00,weatherlink.com 1.10,2013-07-19 09:03:00,
2013-07-19 02:18:00,54.3,52.0,29.92,SW,224,6.0,14.0,93,0.00,,,0.00,weatherlink.com 1.10,2013-07-19 09:18:00,
2013-07-19 02:33:00,54.3,52.0,29.91,South,191,3.0,11.0,93,0.00,,,0.00,weatherlink.com 1.10,2013-07-19 09:33:00,
2013-07-19 02:48:00,54.3,52.0,29.91,South,190,5.0,11.0,93,0.00,,,0.00,weatherlink.com 1.10,2013-07-19 09:48:00,
2013-07-19 03:03:00,54.1,53.0,29.91,SW,222,7.0,13.0,94,0.00,,,0.00,weatherlink.com 1.10,2013-07-19 10:03:00,
2013-07-19 03:18:00,54.0,52.0,29.91,SW,225,8.0,12.0,94,0.00,,,0.00,weatherlink.com 1.10,2013-07-19 10:18:00,
2013-07-19 03:33:00,54.0,52.0,29.91,South,179,9.0,12.0,94,0.00,,,0.00,weatherlink.com 1.10,2013-07-19 10:33:00,
2013-07-19 03:49:00,54.0,52.0,29.91,SSW,204,4.0,10.0,94,0.00,,,0.00,weatherlink.com 1.10,2013-07-19 10:49:00,
2013-07-19 04:04:00,54.2,53.0,29.91,SE,136,4.0,10.0,95,0.00,,,0.00,weatherlink.com 1.10,2013-07-19 11:04:00,
2013-07-19 04:19:00,54.2,53.0,29.91,SSW,212,4.0,12.0,94,0.00,,,0.00,weatherlink.com 1.10,2013-07-19 11:19:00,
2013-07-19 04:34:00,54.2,53.0,29.91,SSW,198,9.0,12.0,94,0.00,,,0.00,weatherlink.com 1.10,2013-07-19 11:34:00,
2013-07-19 04:49:00,54.2,53.0,29.91,SSE,152,7.0,12.0,94,0.00,,,0.00,weatherlink.com 1.10,2013-07-19 11:49:00,
2013-07-19 05:04:00,54.1,53.0,29.91,ESE,121,6.0,14.0,94,0.00,,,0.00,weatherlink.com 1.10,2013-07-19 12:04:00,
2013-07-19 05:19:00,54.3,53.0,29.91,SW,214,6.0,10.0,94,0.00,,,0.00,weatherlink.com 1.10,2013-07-19 12:19:00,
2013-07-19 05:34:00,54.5,53.0,29.91,SW,225,5.0,13.0,94,0.00,,,0.00,weatherlink.com 1.10,2013-07-19 12:34:00,
2013-07-19 05:49:00,54.7,53.0,29.91,SE,145,3.0,10.0,94,0.00,,,0.00,weatherlink.com 1.10,2013-07-19 12:49:00,
2013-07-19 06:04:00,54.6,53.0,29.91,South,172,7.0,13.0,94,0.00,,,0.00,weatherlink.com 1.10,2013-07-19 13:04:00,
2013-07-19 06:19:00,54.7,53.0,29.92,South,186,8.0,12.0,94,0.00,,,0.00,weatherlink.com 1.10,2013-07-19 13:19:00,
2013-07-19 06:34:00,54.7,53.0,29.92,ESE,115,4.0,12.0,94,0.00,,,0.00,weatherlink.com 1.10,2013-07-19 13:34:00,
2013-07-19 06:49:00,54.7,53.0,29.92,South,191,4.0,10.0,94,0.00,,,0.00,weatherlink.com 1.10,2013-07-19 13:49:00,
2013-07-19 07:04:00,54.7,53.0,29.92,SW,233,7.0,10.0,94,0.00,,,0.00,weatherlink.com 1.10,2013-07-19 14:04:00,
2013-07-19 07:19:00,54.8,53.0,29.92,SSE,163,4.0,10.0,94,0.00,,,0.00,weatherlink.com 1.10,2013-07-19 14:19:00,
2013-07-19 07:34:00,55.1,54.0,29.92,SSW,206,4.0,10.0,94,0.00,,,0.00,weatherlink.com 1.10,2013-07-19 14:34:00,
2013-07-19 07:49:00,55.3,54.0,29.93,WSW,253,4.0,10.0,94,0.00,,,0.00,weatherlink.com 1.10,2013-07-19 14:49:00,
2013-07-19 08:04:00,55.3,53.0,29.92,WSW,239,4.0,12.0,93,0.00,,,0.00,weatherlink.com 1.10,2013-07-19 15:04:00,
2013-07-19 08:19:00,55.4,54.0,29.92,SSW,205,4.0,10.0,93,0.00,,,0.00,weatherlink.com 1.10,2013-07-19 15:19:00,
2013-07-19 08:34:00,55.7,54.0,29.93,SW,221,7.0,10.0,93,0.00,,,0.00,weatherlink.com 1.10,2013-07-19 15:34:00,
2013-07-19 08:49:00,56.5,54.0,29.93,South,188,7.0,11.0,92,0.00,,,0.00,weatherlink.com 1.10,2013-07-19 15:49:00,
2013-07-19 09:04:00,56.7,54.0,29.93,South,173,3.0,10.0,91,0.00,,,0.00,weatherlink.com 1.10,2013-07-19 16:04:00,
2013-07-19 09:19:00,56.9,54.0,29.93,SSW,211,8.0,12.0,90,0.00,,,0.00,weatherlink.com 1.10,2013-07-19 16:19:00,
2013-07-19 09:34:00,57.3,55.0,29.93,SW,234,8.0,11.0,90,0.00,,,0.00,weatherlink.com 1.10,2013-07-19 16:34:00,
2013-07-19 09:49:00,57.7,55.0,29.93,SSW,206,7.0,11.0,89,0.00,,,0.00,weatherlink.com 1.10,2013-07-19 16:49:00,
2013-07-19 10:04:00,58.7,55.0,29.93,SSW,200,8.0,10.0,87,0.00,,,0.00,weatherlink.com 1.10,2013-07-19 17:04:00,
2013-07-19 10:19:00,59.1,55.0,29.93,SSE,150,4.0,13.0,86,0.00,,,0.00,weatherlink.com 1.10,2013-07-19 17:19:00,
2013-07-19 10:34:00,59.3,55.0,29.93,South,173,3.0,10.0,86,0.00,,,0.00,weatherlink.com 1.10,2013-07-19 17:34:00,
2013-07-19 10:49:00,59.6,55.0,29.93,SW,231,7.0,9.0,85,0.00,,,0.00,weatherlink.com 1.10,2013-07-19 17:49:00,
2013-07-19 11:04:00,59.8,56.0,29.93,SSE,150,3.0,10.0,86,0.00,,,0.00,weatherlink.com 1.10,2013-07-19 18:04:00,
2013-07-19 11:19:00,60.7,56.0,29.93,SW,221,5.0,8.0,84,0.00,,,0.00,weatherlink.com 1.10,2013-07-19 18:19:00,
2013-07-19 11:34:00,61.6,56.0,29.93,SW,221,4.0,10.0,81,0.00,,,0.00,weatherlink.com 1.10,2013-07-19 18:34:00,
2013-07-19 11:49:00,61.4,56.0,29.93,South,187,5.0,11.0,83,0.00,,,0.00,weatherlink.com 1.10,2013-07-19 18:49:00,
2013-07-19 12:04:00,61.6,56.0,29.92,SW,217,5.0,10.0,82,0.00,,,0.00,weatherlink.com 1.10,2013-07-19 19:04:00,
2013-07-19 12:19:00,62.3,56.0,29.92,SW,218,4.0,13.0,81,0.00,,,0.00,weatherlink.com 1.10,2013-07-19 19:19:00,
2013-07-19 12:34:00,62.8,56.0,29.92,South,190,6.0,10.0,79,0.00,,,0.00,weatherlink.com 1.10,2013-07-19 19:34:00,
2013-07-19 12:49:00,63.3,57.0,29.91,SSW,193,4.0,13.0,79,0.00,,,0.00,weatherlink.com 1.10,2013-07-19 19:49:00,
2013-07-19 13:05:00,63.1,56.0,29.91,South,173,6.0,15.0,78,0.00,,,0.00,weatherlink.com 1.10,2013-07-19 20:05:00,
2013-07-19 13:20:00,63.1,57.0,29.91,SSE,148,6.0,13.0,80,0.00,,,0.00,weatherlink.com 1.10,2013-07-19 20:20:00,
2013-07-19 13:35:00,63.5,57.0,29.89,SSW,201,8.0,12.0,78,0.00,,,0.00,weatherlink.com 1.10,2013-07-19 20:35:00,
2013-07-19 13:50:00,62.9,56.0,29.89,WSW,252,10.0,14.0,78,0.00,,,0.00,weatherlink.com 1.10,2013-07-19 20:50:00,
2013-07-19 14:05:00,63.3,56.0,29.89,SW,221,14.0,14.0,77,0.00,,,0.00,weatherlink.com 1.10,2013-07-19 21:05:00,
2013-07-19 14:20:00,63.2,57.0,29.88,SE,145,12.0,14.0,79,0.00,,,0.00,weatherlink.com 1.10,2013-07-19 21:20:00,
2013-07-19 14:35:00,63.8,56.0,29.88,WSW,239,6.0,13.0,77,0.00,,,0.00,weatherlink.com 1.10,2013-07-19 21:35:00,
2013-07-19 15:05:00,63.7,56.0,29.87,SSW,195,4.0,13.0,77,0.00,,,0.00,weatherlink.com 1.10,2013-07-19 22:05:00,
2013-07-19 15:20:00,64.0,57.0,29.87,South,184,7.0,13.0,77,0.00,,,0.00,weatherlink.com 1.10,2013-07-19 22:20:00,
2013-07-19 15:35:00,64.4,57.0,29.86,SSW,198,6.0,14.0,76,0.00,,,0.00,weatherlink.com 1.10,2013-07-19 22:35:00,
2013-07-19 15:50:00,63.7,57.0,29.86,SW,218,10.0,16.0,79,0.00,,,0.00,weatherlink.com 1.10,2013-07-19 22:50:00,
2013-07-19 16:05:00,63.5,57.0,29.86,SW,231,7.0,16.0,79,0.00,,,0.00,weatherlink.com 1.10,2013-07-19 23:05:00,
2013-07-19 16:20:00,63.6,57.0,29.86,South,190,9.0,15.0,79,0.00,,,0.00,weatherlink.com 1.10,2013-07-19 23:20:00,
2013-07-19 16:35:00,62.7,56.0,29.85,South,174,7.0,16.0,80,0.00,,,0.00,weatherlink.com 1.10,2013-07-19 23:35:00,
2013-07-19 16:50:00,62.1,56.0,29.85,East,97,6.0,19.0,81,0.00,,,0.00,weatherlink.com 1.10,2013-07-19 23:50:00,
2013-07-19 17:05:00,61.6,56.0,29.85,South,179,11.0,20.0,82,0.00,,,0.00,weatherlink.com 1.10,2013-07-20 00:05:00,
2013-07-19 17:20:00,61.1,55.0,29.84,SSE,152,16.0,17.0,81,0.00,,,0.00,weatherlink.com 1.10,2013-07-20 00:20:00,
2013-07-19 17:35:00,59.9,55.0,29.84,South,170,11.0,22.0,84,0.00,,,0.00,weatherlink.com 1.10,2013-07-20 00:35:00,
2013-07-19 17:50:00,59.5,55.0,29.83,South,174,9.0,21.0,84,0.00,,,0.00,weatherlink.com 1.10,2013-07-20 00:50:00,
2013-07-19 18:05:00,58.6,54.0,29.83,SSE,167,14.0,20.0,85,0.00,,,0.00,weatherlink.com 1.10,2013-07-20 01:05:00,
2013-07-19 18:20:00,57.3,54.0,29.83,SSE,152,15.0,21.0,89,0.00,,,0.00,weatherlink.com 1.10,2013-07-20 01:20:00,
2013-07-19 18:35:00,56.9,54.0,29.82,SSE,156,15.0,20.0,89,0.00,,,0.00,weatherlink.com 1.10,2013-07-20 01:35:00,
2013-07-19 18:50:00,56.6,54.0,29.82,SSE,152,19.0,22.0,90,0.00,,,0.00,weatherlink.com 1.10,2013-07-20 01:50:00,
2013-07-19 19:05:00,56.1,53.0,29.82,SSE,153,13.0,19.0,90,0.00,,,0.00,weatherlink.com 1.10,2013-07-20 02:05:00,
2013-07-19 19:20:00,55.5,53.0,29.83,SE,142,12.0,18.0,91,0.00,,,0.00,weatherlink.com 1.10,2013-07-20 02:20:00,
2013-07-19 19:35:00,54.8,53.0,29.83,SSE,166,4.0,23.0,92,0.00,,,0.00,weatherlink.com 1.10,2013-07-20 02:35:00,
2013-07-19 19:50:00,54.8,53.0,29.83,South,177,9.0,23.0,92,0.00,,,0.00,weatherlink.com 1.10,2013-07-20 02:50:00,
2013-07-19 20:05:00,54.6,52.0,29.83,SSW,205,8.0,16.0,92,0.00,,,0.00,weatherlink.com 1.10,2013-07-20 03:05:00,
2013-07-19 20:20:00,54.5,53.0,29.83,South,172,9.0,17.0,93,0.00,,,0.00,weatherlink.com 1.10,2013-07-20 03:20:00,
2013-07-19 20:35:00,54.3,52.0,29.84,South,191,11.0,15.0,93,0.00,,,0.00,weatherlink.com 1.10,2013-07-20 03:35:00,
2013-07-19 20:50:00,54.3,52.0,29.84,South,186,9.0,16.0,93,0.00,,,0.00,weatherlink.com 1.10,2013-07-20 03:50:00,
2013-07-19 21:05:00,54.2,53.0,29.84,SSW,198,9.0,16.0,94,0.00,,,0.00,weatherlink.com 1.10,2013-07-20 04:05:00,
2013-07-19 21:20:00,54.3,53.0,29.85,SSW,195,9.0,17.0,94,0.00,,,0.00,weatherlink.com 1.10,2013-07-20 04:20:00,
2013-07-19 21:35:00,54.2,53.0,29.85,SSE,153,11.0,18.0,94,0.00,,,0.00,weatherlink.com 1.10,2013-07-20 04:35:00,
2013-07-19 21:50:00,54.0,52.0,29.85,SW,219,7.0,16.0,94,0.00,,,0.00,weatherlink.com 1.10,2013-07-20 04:50:00,
2013-07-19 22:05:00,54.0,52.0,29.85,SW,215,5.0,15.0,94,0.00,,,0.00,weatherlink.com 1.10,2013-07-20 05:05:00,
2013-07-19 22:20:00,53.8,52.0,29.86,SSW,195,6.0,19.0,94,0.00,,,0.00,weatherlink.com 1.10,2013-07-20 05:20:00,
2013-07-19 22:35:00,53.9,52.0,29.85,SE,141,7.0,15.0,94,0.00,,,0.00,weatherlink.com 1.10,2013-07-20 05:35:00,
2013-07-19 22:50:00,53.9,52.0,29.85,SW,226,13.0,18.0,94,0.00,,,0.00,weatherlink.com 1.10,2013-07-20 05:50:00,
2013-07-19 23:06:00,53.7,52.0,29.85,SSW,194,5.0,14.0,94,0.00,,,0.00,weatherlink.com 1.10,2013-07-20 06:06:00,
2013-07-19 23:20:00,54.0,52.0,29.85,SW,215,6.0,14.0,94,0.00,,,0.00,weatherlink.com 1.10,2013-07-20 06:20:00,
2013-07-19 23:36:00,54.0,52.0,29.85,SSW,193,8.0,15.0,94,0.00,,,0.00,weatherlink.com 1.10,2013-07-20 06:36:00,
2013-07-19 23:51:00,53.8,52.0,29.85,SSW,201,12.0,15.0,94,0.00,,,0.00,weatherlink.com 1.10,2013-07-20 06:51:00,